CYGV

Havre St Pierre Airport

Havre St-Pierre, Quebec, Canada
TAF CYGV 220738Z 2208/2220 20020G35KT P6SM -RA SCT007 OVC030 TEMPO 2208/2211 3SM -SHRA BR BKN007 OVC015 BECMG 2209/2211 26030G45KT FM221100 26030G45KT P6SM BKN040 BECMG 2212/2214 28030G40KT FM221700 28025G35KT P6SM SCT050 RMK FCST BASED ON AUTO OBS. NXT FCST BY 221400Z
Issued Valid From Valid To
Sep-22 @ 07:38 UTC
(8 hours ago)
Sep-22 @ 08:00 UTC
(8 hours ago)
Sep-22 @ 20:00 UTC
(in 4 hours)
to
to
to
to
to
to
TAF CYGV 220738Z 2208/2220 20020G35KT P6SM -RA SCT007 OVC030 TEMPO 2208/2211 3SM -SHRA BR BKN007 OVC015 BECMG 2209/2211 26030G45KT FM221100 26030G45KT P6SM BKN040 BECMG 2212/2214 28030G40KT FM221700 28025G35KT P6SM SCT050 RMK FCST BASED ON AUTO OBS. NXT FCST BY 221400Z
Issued Sep-22 @ 07:38 UTC
(8 hours ago)
Valid From Sep-22 @ 08:00 UTC
(8 hours ago)
Valid To Sep-22 @ 20:00 UTC
(in 4 hours)
-
-
-
-
-
-